createdAt,value
2023-02-12T00:02:30.738Z,99951.39
2023-02-12T00:05:35.496Z,99946.04
2023-02-12T00:08:35.578Z,99954.05
2023-02-12T00:11:41.508Z,99963.89
2023-02-12T00:14:41.548Z,99969.24
2023-02-12T00:17:42.560Z,99973.08
2023-02-12T00:20:43.550Z,99979.92
2023-02-12T00:23:43.548Z,99987.89
2023-02-12T00:26:44.837Z,99990.25
2023-02-12T00:29:44.524Z,99990.48
2023-02-12T00:32:44.571Z,99993.95
2023-02-12T00:35:44.643Z,99996.95
2023-02-12T00:38:44.659Z,100004.80
2023-02-12T00:41:45.701Z,100008.14
2023-02-12T00:44:45.562Z,100013.18
2023-02-12T00:47:45.602Z,100011.09
2023-02-12T00:50:46.583Z,100015.25
2023-02-12T00:53:47.621Z,100017.72
2023-02-12T00:56:48.619Z,100017.80
2023-02-12T01:00:08.661Z,100025.05
2023-02-12T01:03:08.572Z,100031.84
2023-02-12T01:06:09.600Z,100035.02
2023-02-12T01:09:15.619Z,100042.31
2023-02-12T01:12:15.646Z,100044.38
2023-02-12T01:15:19.661Z,100047.61
2023-02-12T01:18:27.676Z,100059.26
2023-02-12T01:21:30.701Z,100059.41
2023-02-12T01:24:30.663Z,100061.96
2023-02-12T01:27:30.633Z,100066.89
2023-02-12T01:30:30.670Z,100071.80
2023-02-12T01:33:30.742Z,100077.91
2023-02-12T01:36:30.688Z,100084.56
2023-02-12T01:39:32.774Z,100093.46
2023-02-12T01:42:32.677Z,100099.40
2023-02-12T01:45:35.671Z,100102.31
2023-02-12T01:48:36.691Z,100108.61
2023-02-12T01:51:39.169Z,100116.63
2023-02-12T01:54:40.691Z,100122.66
2023-02-12T01:57:41.765Z,100131.02
2023-02-12T02:00:42.724Z,100145.20
2023-02-12T02:03:43.746Z,100148.69
2023-02-12T02:06:55.772Z,100150.95
2023-02-12T02:09:55.756Z,100164.36
2023-02-12T02:13:13.928Z,100169.08
2023-02-12T02:16:39.941Z,100178.30
2023-02-12T02:19:59.744Z,100197.20
2023-02-12T02:23:05.729Z,100208.69
2023-02-12T02:26:35.818Z,100217.11
2023-02-12T02:30:02.794Z,100224.10
2023-02-12T02:33:12.778Z,100232.91
2023-02-12T02:36:54.445Z,100247.23
2023-02-12T02:40:17.790Z,100249.70
2023-02-12T02:43:22.803Z,100263.70
2023-02-12T02:46:44.875Z,100277.20
2023-02-12T02:49:59.843Z,100288.71
2023-02-12T02:53:19.282Z,100299.05
2023-02-12T02:56:22.854Z,100304.53
2023-02-12T02:59:37.832Z,100307.02
2023-02-12T03:02:42.848Z,100314.90
2023-02-12T03:05:46.011Z,100326.63
2023-02-12T03:08:47.794Z,100340.60
2023-02-12T03:11:47.845Z,100354.39
2023-02-12T03:14:56.091Z,100356.70
2023-02-12T03:17:59.828Z,100362.83
2023-02-12T03:21:03.804Z,100367.29
2023-02-12T03:24:08.886Z,100381.70
2023-02-12T03:27:33.861Z,100382.75
2023-02-12T03:30:33.942Z,100395.42
2023-02-12T03:33:42.880Z,100418.61
2023-02-12T03:36:49.085Z,100427.25
2023-02-12T03:39:57.197Z,100432.85
2023-02-12T03:42:57.905Z,100444.05
2023-02-12T03:46:11.170Z,100455.09
2023-02-12T03:50:02.924Z,100470.64
2023-02-12T03:53:05.907Z,100479.77
2023-02-12T03:56:08.933Z,100498.81
2023-02-12T03:59:08.926Z,100494.05
2023-02-12T04:02:10.019Z,100509.70
2023-02-12T04:05:10.906Z,100521.13
2023-02-12T04:08:12.929Z,100531.80
2023-02-12T04:11:15.965Z,100535.03
2023-02-12T04:14:41.986Z,100537.78
2023-02-12T04:18:02.980Z,100549.73
2023-02-12T04:21:32.020Z,100564.90
2023-02-12T04:24:32.016Z,100573.73
2023-02-12T04:28:12.007Z,100577.88
2023-02-12T04:31:19.001Z,100581.02
2023-02-12T04:34:41.994Z,100582.20
2023-02-12T04:37:43.987Z,100591.10
2023-02-12T04:40:45.495Z,100597.55
2023-02-12T04:43:46.994Z,100606.30
2023-02-12T04:46:47.943Z,100603.27
2023-02-12T04:49:47.979Z,100616.66
2023-02-12T04:52:48.227Z,100615.09
2023-02-12T04:55:49.045Z,100621.55
2023-02-12T04:58:54.028Z,100630.70
2023-02-12T05:01:56.043Z,100646.02
2023-02-12T05:04:56.250Z,100643.93
2023-02-12T05:07:57.013Z,100655.87
2023-02-12T05:10:58.005Z,100664.27
2023-02-12T05:14:04.143Z,100670.79
2023-02-12T05:17:05.196Z,100686.44
2023-02-12T05:20:09.018Z,100693.71
2023-02-12T05:23:11.072Z,100701.54
2023-02-12T05:26:12.043Z,100708.65
2023-02-12T05:29:13.091Z,100714.66
2023-02-12T05:32:13.281Z,100730.38
2023-02-12T05:35:13.037Z,100734.33
2023-02-12T05:38:13.107Z,100731.70
2023-02-12T05:41:18.081Z,100737.02
2023-02-12T05:44:19.056Z,100741.55
2023-02-12T05:47:20.115Z,100750.61
2023-02-12T05:50:21.051Z,100752.90
2023-02-12T05:53:27.080Z,100754.55
2023-02-12T05:56:41.112Z,100761.58
2023-02-12T05:59:41.195Z,100763.44
2023-02-12T06:02:44.148Z,100779.79
2023-02-12T06:05:46.794Z,100784.84
2023-02-12T06:08:48.192Z,100785.31
2023-02-12T06:11:52.143Z,100791.96
2023-02-12T06:14:54.322Z,100802.34
2023-02-12T06:17:55.100Z,100813.70
2023-02-12T06:20:55.185Z,100814.72
2023-02-12T06:23:56.207Z,100824.10
2023-02-12T06:27:02.156Z,100822.23
2023-02-12T06:30:02.414Z,100828.55
2023-02-12T06:33:06.342Z,100826.06
2023-02-12T06:36:09.302Z,100831.16
2023-02-12T06:39:09.188Z,100827.90
2023-02-12T06:42:09.164Z,100824.53
2023-02-12T06:45:09.164Z,100815.32
2023-02-12T06:48:10.243Z,100819.05
2023-02-12T06:51:10.255Z,100823.20
2023-02-12T06:54:11.320Z,100832.89
2023-02-12T06:57:11.190Z,100835.28
2023-02-12T07:00:13.505Z,100832.27
2023-02-12T07:03:18.210Z,100840.57
2023-02-12T07:06:26.217Z,100840.61
2023-02-12T07:09:31.571Z,100846.20
2023-02-12T07:12:43.277Z,100851.27
2023-02-12T07:15:43.255Z,100860.73
2023-02-12T07:18:49.263Z,100858.11
2023-02-12T07:21:49.517Z,100875.69
2023-02-12T07:24:53.534Z,100878.76
2023-02-12T07:27:56.921Z,100879.84
2023-02-12T07:31:01.703Z,100877.08
2023-02-12T07:34:10.516Z,100888.47
2023-02-12T07:37:10.281Z,100888.92
2023-02-12T07:40:14.342Z,100891.01
2023-02-12T07:43:14.520Z,100891.89
2023-02-12T07:46:29.286Z,100896.85
2023-02-12T07:49:34.269Z,100896.16
2023-02-12T07:52:38.581Z,100903.45
2023-02-12T07:55:38.256Z,100908.42
2023-02-12T07:58:41.226Z,100909.33
2023-02-12T08:01:51.295Z,100908.77
2023-02-12T08:04:51.307Z,100906.73
2023-02-12T08:07:53.279Z,100911.30
2023-02-12T08:10:54.408Z,100913.55
2023-02-12T08:13:57.474Z,100912.97
2023-02-12T08:16:58.342Z,100926.11
2023-02-12T08:20:01.350Z,100925.52
2023-02-12T08:23:02.378Z,100922.55
2023-02-12T08:26:06.321Z,100918.75
2023-02-12T08:29:15.386Z,100915.70
2023-02-12T08:32:21.586Z,100920.34
2023-02-12T08:35:21.454Z,100929.03
2023-02-12T08:38:22.635Z,100934.89
2023-02-12T08:41:25.487Z,100928.03
2023-02-12T08:44:25.561Z,100932.54
2023-02-12T08:47:30.423Z,100935.70
2023-02-12T08:50:31.464Z,100947.71
2023-02-12T08:53:32.448Z,100943.02
2023-02-12T08:56:36.437Z,100939.45
2023-02-12T08:59:36.429Z,100954.03
2023-02-12T09:02:36.516Z,100965.74
2023-02-12T09:05:38.581Z,100976.13
2023-02-12T09:08:42.793Z,100964.38
2023-02-12T09:11:44.514Z,100960.79
2023-02-12T09:14:45.489Z,100964.58
2023-02-12T09:17:49.423Z,100970.95
2023-02-12T09:20:53.460Z,100970.37
2023-02-12T09:23:58.542Z,100979.02
2023-02-12T09:26:59.537Z,100988.48
2023-02-12T09:30:00.731Z,100977.93
2023-02-12T09:33:02.596Z,100986.96
2023-02-12T09:36:04.483Z,100993.90
2023-02-12T09:39:05.595Z,100997.66
2023-02-12T09:42:29.462Z,100992.66
2023-02-12T09:45:39.519Z,100995.13
2023-02-12T09:48:49.766Z,100967.76
2023-02-12T09:51:51.504Z,100977.74
2023-02-12T09:54:52.565Z,100977.89
2023-02-12T09:57:54.959Z,100963.42
2023-02-12T10:00:57.580Z,100969.70
2023-02-12T10:03:59.563Z,100967.93
2023-02-12T10:07:04.668Z,100965.04
2023-02-12T10:10:26.604Z,100968.97
2023-02-12T10:13:43.521Z,100969.66
2023-02-12T10:16:59.552Z,100971.35
2023-02-12T10:20:18.559Z,100973.89
2023-02-12T10:23:44.666Z,100978.88
2023-02-12T10:26:55.757Z,100973.83
2023-02-12T10:29:58.617Z,100978.80
2023-02-12T10:33:03.706Z,100980.54
2023-02-12T10:36:04.572Z,100982.14
2023-02-12T10:39:12.654Z,100990.58
2023-02-12T10:42:31.658Z,100989.33
2023-02-12T10:45:36.595Z,100996.20
2023-02-12T10:48:51.651Z,100988.69
2023-02-12T10:52:15.634Z,100997.94
2023-02-12T10:55:16.647Z,100999.50
2023-02-12T10:58:17.751Z,100995.09
2023-02-12T11:01:17.778Z,100997.52
2023-02-12T11:04:36.793Z,101000.44
2023-02-12T11:07:40.936Z,101017.15
2023-02-12T11:10:52.667Z,101024.92
2023-02-12T11:13:59.666Z,101028.09
2023-02-12T11:17:08.728Z,101039.15
2023-02-12T11:20:22.123Z,101035.23
2023-02-12T11:23:38.655Z,101039.76
2023-02-12T11:26:42.670Z,101038.33
2023-02-12T11:29:43.794Z,101033.52
2023-02-12T11:32:45.960Z,101029.50
2023-02-12T11:35:45.687Z,101035.85
2023-02-12T11:38:47.726Z,101033.41
2023-02-12T11:41:52.678Z,101036.02
2023-02-12T11:44:54.867Z,101036.66
2023-02-12T11:47:55.753Z,101033.66
2023-02-12T11:51:02.720Z,101037.44
2023-02-12T11:54:04.748Z,101041.65
2023-02-12T11:57:05.781Z,101032.47
2023-02-12T12:00:06.851Z,101032.32
2023-02-12T12:03:26.971Z,101035.52
2023-02-12T12:06:49.991Z,101038.67
2023-02-12T12:09:57.821Z,101039.49
2023-02-12T12:13:04.544Z,101044.52
2023-02-12T12:17:06.106Z,101038.29
2023-02-12T12:20:12.975Z,101036.02
2023-02-12T12:23:18.761Z,101032.39
2023-02-12T12:26:34.950Z,101039.98
2023-02-12T12:29:39.986Z,101038.70
2023-02-12T12:32:39.924Z,101046.27
2023-02-12T12:35:50.858Z,101046.66
2023-02-12T12:39:02.874Z,101048.72
2023-02-12T12:42:35.801Z,101052.79
2023-02-12T12:46:18.077Z,101047.81
2023-02-12T12:49:42.161Z,101054.95
2023-02-12T12:52:56.932Z,101055.14
2023-02-12T12:55:59.940Z,101059.88
2023-02-12T13:03:15.840Z,101064.50
2023-02-12T13:06:22.045Z,101065.29
2023-02-12T13:09:37.853Z,101070.90
2023-02-12T13:12:38.975Z,101077.27
2023-02-12T13:15:50.947Z,101074.20
2023-02-12T13:19:03.442Z,101087.05
2023-02-12T13:22:13.921Z,101087.66
2023-02-12T13:25:35.882Z,101089.18
2023-02-12T13:28:43.921Z,101096.19
2023-02-12T13:31:46.088Z,101095.44
2023-02-12T13:34:46.900Z,101107.27
2023-02-12T13:37:55.171Z,101111.58
2023-02-12T13:40:56.639Z,101119.19
2023-02-12T13:44:17.799Z,101123.52
2023-02-12T13:47:41.928Z,101128.05
2023-02-12T13:51:00.790Z,101133.27
2023-02-12T13:54:07.914Z,101144.27
2023-02-12T13:57:10.957Z,101146.38
2023-02-12T14:00:16.418Z,101145.66
2023-02-12T14:03:22.325Z,101147.84
2023-02-12T14:06:31.099Z,101165.47
2023-02-12T14:09:36.178Z,101175.17
2023-02-12T14:12:37.212Z,101183.16
2023-02-12T14:15:45.152Z,101196.44
2023-02-12T14:18:49.233Z,101194.80
2023-02-12T14:21:50.990Z,101192.46
2023-02-12T14:24:52.015Z,101186.34
2023-02-12T14:28:03.161Z,101197.49
2023-02-12T14:31:31.132Z,101201.07
2023-02-12T14:34:35.308Z,101208.10
2023-02-12T14:37:47.045Z,101203.78
2023-02-12T14:40:51.483Z,101209.46
2023-02-12T14:44:09.594Z,101220.72
2023-02-12T14:47:11.042Z,101230.98
2023-02-12T14:50:19.199Z,101228.40
2023-02-12T14:53:41.132Z,101241.70
2023-02-12T14:56:41.343Z,101244.30
2023-02-12T14:59:45.074Z,101254.19
2023-02-12T15:02:48.031Z,101254.67
2023-02-12T15:05:51.328Z,101258.81
2023-02-12T15:09:02.038Z,101261.46
2023-02-12T15:12:12.065Z,101264.13
2023-02-12T15:15:26.934Z,101274.90
2023-02-12T15:18:40.123Z,101281.45
2023-02-12T15:21:48.194Z,101285.79
2023-02-12T15:24:53.581Z,101289.05
2023-02-12T15:28:01.233Z,101289.95
2023-02-12T15:31:02.605Z,101291.52
2023-02-12T15:34:05.175Z,101290.92
2023-02-12T15:37:07.133Z,101294.36
2023-02-12T15:40:17.131Z,101295.24
2023-02-12T15:43:19.174Z,101304.04
2023-02-12T15:46:22.521Z,101307.90
2023-02-12T15:49:32.424Z,101311.68
2023-02-12T15:52:41.536Z,101325.23
2023-02-12T15:55:48.216Z,101328.19
2023-02-12T15:58:59.212Z,101329.41
2023-02-12T16:02:14.139Z,101332.36
2023-02-12T16:05:16.243Z,101328.45
2023-02-12T16:08:24.159Z,101332.51
2023-02-12T16:11:28.164Z,101337.16
2023-02-12T16:14:52.249Z,101344.55
2023-02-12T16:18:04.859Z,101347.10
2023-02-12T16:21:24.438Z,101350.49
2023-02-12T16:24:47.176Z,101353.02
2023-02-12T16:27:50.448Z,101359.52
2023-02-12T16:30:55.692Z,101357.13
2023-02-12T16:34:06.726Z,101359.45
2023-02-12T16:37:08.182Z,101357.13
2023-02-12T16:40:10.329Z,101361.36
2023-02-12T16:43:36.602Z,101361.45
2023-02-12T16:46:41.145Z,101359.44
2023-02-12T16:49:43.191Z,101359.77
2023-02-12T16:52:51.240Z,101361.45
2023-02-12T16:55:59.407Z,101357.16
2023-02-12T16:59:06.472Z,101362.09
2023-02-12T17:02:26.221Z,101360.45
2023-02-12T17:05:29.404Z,101362.41
2023-02-12T17:08:31.458Z,101357.75
2023-02-12T17:11:35.228Z,101355.46
2023-02-12T17:14:38.303Z,101365.48
2023-02-12T17:17:39.390Z,101376.11
2023-02-12T17:20:43.618Z,101379.09
2023-02-12T17:23:44.654Z,101389.48
2023-02-12T17:26:46.609Z,101394.69
2023-02-12T17:29:48.360Z,101399.48
2023-02-12T17:32:51.546Z,101404.77
2023-02-12T17:35:53.492Z,101402.94
2023-02-12T17:38:54.279Z,101406.60
2023-02-12T17:41:58.708Z,101404.55
2023-02-12T17:44:59.314Z,101407.41
2023-02-12T17:48:00.341Z,101403.06
2023-02-12T17:51:07.385Z,101395.89
2023-02-12T17:54:12.374Z,101395.83
2023-02-12T17:57:13.031Z,101399.14
2023-02-12T18:00:16.434Z,101396.95
2023-02-12T18:03:18.384Z,101405.50
2023-02-12T18:06:22.692Z,101407.36
2023-02-12T18:09:24.698Z,101408.51
2023-02-12T18:12:24.433Z,101417.89
2023-02-12T18:15:27.335Z,101419.98
2023-02-12T18:18:28.529Z,101429.80
2023-02-12T18:21:29.537Z,101440.46
2023-02-12T18:24:30.463Z,101443.51
2023-02-12T18:27:30.448Z,101455.27
2023-02-12T18:30:31.558Z,101457.11
2023-02-12T18:33:33.329Z,101461.45
2023-02-12T18:36:36.401Z,101461.69
2023-02-12T18:39:37.805Z,101465.98
2023-02-12T18:42:39.364Z,101467.09
2023-02-12T18:45:40.505Z,101469.45
2023-02-12T18:48:42.428Z,101467.61
2023-02-12T18:51:47.371Z,101466.58
2023-02-12T18:54:50.497Z,101467.28
2023-02-12T18:57:50.415Z,101465.44
2023-02-12T19:00:51.409Z,101469.05
2023-02-12T19:03:54.399Z,101470.07
2023-02-12T19:06:54.993Z,101472.33
2023-02-12T19:10:32.477Z,101467.83
2023-02-12T19:13:33.424Z,101463.60
2023-02-12T19:16:33.599Z,101459.88
2023-02-12T19:19:38.825Z,101458.08
2023-02-12T19:22:39.507Z,101458.90
2023-02-12T19:25:50.663Z,101461.27
2023-02-12T19:28:54.512Z,101469.84
2023-02-12T19:31:56.990Z,101467.52
2023-02-12T19:35:04.529Z,101456.17
2023-02-12T19:38:07.472Z,101451.51
2023-02-12T19:41:15.485Z,101452.21
2023-02-12T19:44:23.763Z,101449.95
2023-02-12T19:47:23.485Z,101443.17
2023-02-12T19:50:35.351Z,101435.09
2023-02-12T19:53:36.526Z,101429.77
2023-02-12T19:56:36.496Z,101430.77
2023-02-12T19:59:36.538Z,101426.71
2023-02-12T20:02:37.563Z,101425.14
2023-02-12T20:05:43.530Z,101426.05
2023-02-12T20:08:43.561Z,101418.65
2023-02-12T20:11:47.828Z,101424.64
2023-02-12T20:14:50.608Z,101420.24
2023-02-12T20:17:51.545Z,101423.74
2023-02-12T20:20:54.620Z,101428.86
2023-02-12T20:24:01.973Z,101428.03
2023-02-12T20:27:03.836Z,101425.45
2023-02-12T20:30:04.616Z,101430.25
2023-02-12T20:33:07.571Z,101430.76
2023-02-12T20:36:08.799Z,101429.91
2023-02-12T20:39:09.614Z,101440.46
2023-02-12T20:42:14.569Z,101443.89
2023-02-12T20:45:20.824Z,101439.29
2023-02-12T20:48:21.597Z,101440.74
2023-02-12T20:51:23.591Z,101446.39
2023-02-12T20:54:24.574Z,101448.98
2023-02-12T20:57:31.628Z,101451.38
2023-02-12T21:00:33.760Z,101460.19
2023-02-12T21:03:36.581Z,101464.11
2023-02-12T21:06:36.814Z,101457.84
2023-02-12T21:09:29.779Z,101462.33
2023-02-12T21:12:31.866Z,101458.76
2023-02-12T21:15:32.686Z,101461.05
2023-02-12T21:18:35.761Z,101458.88
2023-02-12T21:21:41.621Z,101455.39
2023-02-12T21:24:42.674Z,101458.74
2023-02-12T21:27:46.588Z,101465.03
2023-02-12T21:30:48.638Z,101472.39
2023-02-12T21:33:55.697Z,101469.69
2023-02-12T21:36:56.823Z,101473.02
2023-02-12T21:39:57.632Z,101475.65
2023-02-12T21:42:59.691Z,101472.23
2023-02-12T21:46:04.822Z,101474.76
2023-02-12T21:49:07.766Z,101474.96
2023-02-12T21:52:16.134Z,101474.90
2023-02-12T21:55:19.658Z,101477.41
2023-02-12T21:58:19.682Z,101474.29
2023-02-12T22:01:25.821Z,101474.02
2023-02-12T22:04:27.724Z,101464.60
2023-02-12T22:07:28.942Z,101461.27
2023-02-12T22:10:32.071Z,101463.33
2023-02-12T22:13:33.677Z,101456.20
2023-02-12T22:16:38.929Z,101457.98
2023-02-12T22:19:39.716Z,101460.35
2023-02-12T22:22:40.722Z,101463.51
2023-02-12T22:25:40.703Z,101466.52
2023-02-12T22:28:42.751Z,101465.19
2023-02-12T22:31:44.879Z,101470.69
2023-02-12T22:34:46.829Z,101469.64
2023-02-12T22:37:47.753Z,101474.51
2023-02-12T22:40:49.749Z,101476.89
2023-02-12T22:43:52.739Z,101476.95
2023-02-12T22:46:54.795Z,101479.90
2023-02-12T22:49:56.768Z,101481.62
2023-02-12T22:52:56.742Z,101482.34
2023-02-12T22:55:57.775Z,101479.09
2023-02-12T22:58:58.756Z,101477.92
2023-02-12T23:01:59.892Z,101477.59
2023-02-12T23:04:59.771Z,101480.98
2023-02-12T23:07:59.785Z,101470.08
2023-02-12T23:11:01.829Z,101463.48
2023-02-12T23:14:02.776Z,101455.04
2023-02-12T23:17:03.846Z,101449.85
2023-02-12T23:20:03.780Z,101452.36
2023-02-12T23:23:06.836Z,101446.79
2023-02-12T23:26:10.812Z,101446.80
2023-02-12T23:29:10.840Z,101446.59
2023-02-12T23:32:12.939Z,101445.10
2023-02-12T23:35:12.933Z,101444.73
2023-02-12T23:38:13.954Z,101443.78
2023-02-12T23:41:13.989Z,101441.75
2023-02-12T23:44:14.847Z,101437.08
2023-02-12T23:47:15.891Z,101433.69
2023-02-12T23:50:18.945Z,101429.13
2023-02-12T23:53:20.059Z,101437.50
2023-02-12T23:56:20.932Z,101433.45
2023-02-12T23:59:22.927Z,101432.03
